createdAt,value
2022-08-05T00:02:11.441Z,97597.03
2022-08-05T00:04:40.292Z,97596.94
2022-08-05T00:07:27.455Z,97591.22
2022-08-05T00:09:54.595Z,97597.63
2022-08-05T00:12:21.514Z,97589.59
2022-08-05T00:14:51.898Z,97587.38
2022-08-05T00:17:20.252Z,97594.25
2022-08-05T00:20:02.352Z,97593.84
2022-08-05T00:22:29.839Z,97602.81
2022-08-05T00:24:58.075Z,97595.97
2022-08-05T00:27:35.600Z,97597.34
2022-08-05T00:30:04.343Z,97599.38
2022-08-05T00:32:31.096Z,97593.69
2022-08-05T00:35:06.740Z,97589.84
2022-08-05T00:37:51.321Z,97591.19
2022-08-05T00:40:26.874Z,97597.72
2022-08-05T00:43:01.166Z,97594.31
2022-08-05T00:45:42.776Z,97597.84
2022-08-05T00:48:12.597Z,97594.88
2022-08-05T00:50:46.062Z,97592.53
2022-08-05T00:53:45.396Z,97595.06
2022-08-05T00:56:05.638Z,97592.41
2022-08-05T00:58:34.955Z,97588.88
2022-08-05T01:01:08.767Z,97584.84
2022-08-05T01:03:36.079Z,97584.97
2022-08-05T01:06:05.459Z,97583.75
2022-08-05T01:08:43.116Z,97580.34
2022-08-05T01:11:37.401Z,97576.56
2022-08-05T01:14:36.395Z,97578.69
2022-08-05T01:17:14.381Z,97578.06
2022-08-05T01:20:01.160Z,97579.66
2022-08-05T01:22:47.993Z,97566.66
2022-08-05T01:25:53.353Z,97579.56
2022-08-05T01:28:28.984Z,97571.31
2022-08-05T01:31:09.558Z,97574.22
2022-08-05T01:33:55.430Z,97578.91
2022-08-05T01:36:28.083Z,97581.34
2022-08-05T01:38:56.728Z,97586.28
2022-08-05T01:41:31.434Z,97585.78
2022-08-05T01:44:01.472Z,97588.47
2022-08-05T01:46:42.174Z,97582.50
2022-08-05T01:49:24.167Z,97589.31
2022-08-05T01:51:58.433Z,97592.75
2022-08-05T01:54:27.510Z,97579.06
2022-08-05T01:58:29.946Z,97577.25
2022-08-05T01:59:48.555Z,97580.69
2022-08-05T02:02:16.784Z,97582.06
2022-08-05T02:04:49.467Z,97582.38
2022-08-05T02:07:21.843Z,97576.81
2022-08-05T02:09:50.211Z,97575.97
2022-08-05T02:12:25.808Z,97580.56
2022-08-05T02:15:13.787Z,97578.63
2022-08-05T02:18:31.138Z,97582.38
2022-08-05T02:20:53.991Z,97575.88
2022-08-05T02:23:33.516Z,97577.16
2022-08-05T02:26:04.977Z,97570.19
2022-08-05T02:28:38.415Z,97566.44
2022-08-05T02:31:15.046Z,97563.38
2022-08-05T02:33:48.431Z,97564.31
2022-08-05T02:36:19.287Z,97558.34
2022-08-05T02:38:52.782Z,97566.25
2022-08-05T02:41:22.980Z,97557.91
2022-08-05T02:44:02.762Z,97562.78
2022-08-05T02:46:44.069Z,97559.72
2022-08-05T02:49:27.481Z,97566.13
2022-08-05T02:52:07.734Z,97559.09
2022-08-05T02:54:37.375Z,97558.03
2022-08-05T02:58:11.823Z,97574.28
2022-08-05T02:59:57.713Z,97571.75
2022-08-05T03:02:34.038Z,97576.56
2022-08-05T03:05:02.211Z,97575.72
2022-08-05T03:07:40.418Z,97580.09
2022-08-05T03:10:24.501Z,97573.38
2022-08-05T03:12:54.096Z,97575.63
2022-08-05T03:15:23.435Z,97578.94
2022-08-05T03:17:53.996Z,97577.88
2022-08-05T03:20:22.465Z,97577.97
2022-08-05T03:22:50.975Z,97570.09
2022-08-05T03:25:33.751Z,97572.13
2022-08-05T03:28:08.304Z,97570.84
2022-08-05T03:30:38.251Z,97564.88
2022-08-05T03:33:08.304Z,97561.13
2022-08-05T03:35:40.815Z,97562.22
2022-08-05T03:38:11.861Z,97571.06
2022-08-05T03:40:48.423Z,97581.22
2022-08-05T03:44:09.731Z,97569.03
2022-08-05T03:46:05.116Z,97575.34
2022-08-05T03:48:35.431Z,97577.25
2022-08-05T03:52:38.732Z,97585.38
2022-08-05T03:55:51.582Z,97580.25
2022-08-05T03:57:16.353Z,97580.47
2022-08-05T03:59:54.907Z,97584.75
2022-08-05T04:02:38.934Z,97579.28
2022-08-05T04:05:14.982Z,97577.81
2022-08-05T04:07:57.096Z,97572.38
2022-08-05T04:10:28.311Z,97572.69
2022-08-05T04:12:59.320Z,97577.28
2022-08-05T04:15:28.013Z,97577.59
2022-08-05T04:18:03.962Z,97576.63
2022-08-05T04:20:34.601Z,97583.44
2022-08-05T04:23:01.613Z,97577.03
2022-08-05T04:25:56.500Z,97581.84
2022-08-05T04:28:15.204Z,97575.44
2022-08-05T04:30:43.979Z,97576.63
2022-08-05T04:33:10.556Z,97572.75
2022-08-05T04:36:16.661Z,97573.53
2022-08-05T04:38:23.674Z,97575.84
2022-08-05T04:41:06.581Z,97583.00
2022-08-05T04:43:34.332Z,97575.41
2022-08-05T04:46:05.045Z,97571.13
2022-08-05T04:48:32.108Z,97575.63
2022-08-05T04:51:03.287Z,97568.91
2022-08-05T04:53:36.601Z,97569.19
2022-08-05T04:56:32.748Z,97571.53
2022-08-05T04:58:53.362Z,97581.66
2022-08-05T05:02:03.996Z,97568.13
2022-08-05T05:04:06.704Z,97560.47
2022-08-05T05:06:40.440Z,97567.56
2022-08-05T05:09:14.181Z,97570.06
2022-08-05T05:11:54.065Z,97558.97
2022-08-05T05:14:27.990Z,97558.41
2022-08-05T05:16:59.276Z,97558.53
2022-08-05T05:19:27.398Z,97560.09
2022-08-05T05:22:22.517Z,97558.94
2022-08-05T05:24:58.789Z,97560.28
2022-08-05T05:27:45.068Z,97554.59
2022-08-05T05:30:29.372Z,97560.53
2022-08-05T05:33:00.747Z,97564.56
2022-08-05T05:35:38.119Z,97563.63
2022-08-05T05:38:13.242Z,97557.22
2022-08-05T05:40:49.894Z,97555.38
2022-08-05T05:43:27.931Z,97561.72
2022-08-05T05:46:10.772Z,97555.25
2022-08-05T05:48:44.012Z,97550.88
2022-08-05T05:51:15.454Z,97562.47
2022-08-05T05:53:54.046Z,97557.19
2022-08-05T05:56:32.307Z,97554.50
2022-08-05T05:59:07.763Z,97561.91
2022-08-05T06:01:40.343Z,97553.84
2022-08-05T06:04:13.183Z,97550.41
2022-08-05T06:06:46.427Z,97557.69
2022-08-05T06:09:17.280Z,97557.44
2022-08-05T06:12:01.659Z,97553.34
2022-08-05T06:14:30.694Z,97554.66
2022-08-05T06:16:58.301Z,97562.06
2022-08-05T06:19:33.996Z,97562.91
2022-08-05T06:22:02.563Z,97564.94
2022-08-05T06:24:30.166Z,97564.25
2022-08-05T06:26:58.283Z,97552.31
2022-08-05T06:29:46.736Z,97549.72
2022-08-05T06:32:21.013Z,97552.19
2022-08-05T06:34:53.500Z,97554.31
2022-08-05T06:37:55.547Z,97547.84
2022-08-05T06:40:10.529Z,97541.53
2022-08-05T06:42:39.859Z,97544.13
2022-08-05T06:45:08.882Z,97545.81
2022-08-05T06:48:36.023Z,97548.34
2022-08-05T06:50:23.544Z,97544.81
2022-08-05T06:52:58.672Z,97557.19
2022-08-05T06:55:36.323Z,97553.63
2022-08-05T06:58:20.116Z,97552.06
2022-08-05T07:00:51.528Z,97543.16
2022-08-05T07:03:18.752Z,97545.41
2022-08-05T07:05:46.232Z,97538.44
2022-08-05T07:08:13.609Z,97542.16
2022-08-05T07:10:52.541Z,97542.06
2022-08-05T07:13:58.057Z,97539.56
2022-08-05T07:18:00.161Z,97533.50
2022-08-05T07:20:16.857Z,97538.78
2022-08-05T07:22:17.808Z,97533.03
2022-08-05T07:24:52.620Z,97539.28
2022-08-05T07:27:21.579Z,97530.63
2022-08-05T07:30:24.299Z,97530.53
2022-08-05T07:32:35.835Z,97528.78
2022-08-05T07:35:55.969Z,97527.72
2022-08-05T07:37:54.481Z,97531.72
2022-08-05T07:40:31.377Z,97524.88
2022-08-05T07:42:59.843Z,97521.31
2022-08-05T07:45:57.135Z,97520.09
2022-08-05T07:49:00.426Z,97518.50
2022-08-05T07:51:05.447Z,97518.91
2022-08-05T07:53:50.374Z,97513.09
2022-08-05T07:57:00.102Z,97519.53
2022-08-05T07:59:04.933Z,97511.19
2022-08-05T08:01:35.039Z,97502.81
2022-08-05T08:04:08.092Z,97507.81
2022-08-05T08:06:34.723Z,97501.22
2022-08-05T08:09:01.396Z,97503.13
2022-08-05T08:11:47.429Z,97502.13
2022-08-05T08:14:18.195Z,97498.78
2022-08-05T08:16:50.839Z,97489.69
2022-08-05T08:20:10.201Z,97491.56
2022-08-05T08:22:04.851Z,97490.94
2022-08-05T08:24:51.729Z,97492.34
2022-08-05T08:27:18.215Z,97489.69
2022-08-05T08:30:05.971Z,97495.25
2022-08-05T08:32:33.829Z,97490.34
2022-08-05T08:35:07.509Z,97494.41
2022-08-05T08:37:40.336Z,97500.88
2022-08-05T08:40:11.908Z,97490.03
2022-08-05T08:42:50.999Z,97494.91
2022-08-05T08:45:26.528Z,97502.34
2022-08-05T08:48:07.050Z,97489.16
2022-08-05T08:51:03.133Z,97487.94
2022-08-05T08:53:31.231Z,97482.50
2022-08-05T08:56:04.965Z,97480.47
2022-08-05T08:58:43.644Z,97477.38
2022-08-05T09:01:17.144Z,97482.78
2022-08-05T09:03:54.218Z,97479.59
2022-08-05T09:06:27.795Z,97473.69
2022-08-05T09:08:56.257Z,97475.50
2022-08-05T09:11:52.140Z,97467.72
2022-08-05T09:14:58.276Z,97470.22
2022-08-05T09:16:57.892Z,97456.81
2022-08-05T09:19:28.061Z,97463.91
2022-08-05T09:22:17.761Z,97464.88
2022-08-05T09:24:59.742Z,97462.16
2022-08-05T09:28:04.105Z,97457.34
2022-08-05T09:30:24.190Z,97452.63
2022-08-05T09:32:51.570Z,97443.78
2022-08-05T09:35:26.775Z,97437.31
2022-08-05T09:38:16.802Z,97434.22
2022-08-05T09:40:44.612Z,97437.31
2022-08-05T09:43:40.835Z,97426.66
2022-08-05T09:46:28.074Z,97433.41
2022-08-05T09:49:07.264Z,97431.81
2022-08-05T09:51:42.398Z,97429.31
2022-08-05T09:54:09.465Z,97422.53
2022-08-05T09:56:38.097Z,97419.06
2022-08-05T09:59:06.042Z,97426.69
2022-08-05T10:01:45.794Z,97416.75
2022-08-05T10:04:13.965Z,97430.34
2022-08-05T10:06:58.836Z,97420.59
2022-08-05T10:09:28.053Z,97425.91
2022-08-05T10:12:18.515Z,97418.53
2022-08-05T10:14:54.719Z,97418.47
2022-08-05T10:17:37.229Z,97413.31
2022-08-05T10:20:11.040Z,97426.91
2022-08-05T10:22:43.158Z,97421.66
2022-08-05T10:25:19.054Z,97429.78
2022-08-05T10:28:13.599Z,97426.97
2022-08-05T10:32:46.780Z,97426.03
2022-08-05T10:33:23.459Z,97425.78
2022-08-05T10:35:59.056Z,97418.19
2022-08-05T10:38:27.642Z,97420.59
2022-08-05T10:41:01.376Z,97406.94
2022-08-05T10:43:35.768Z,97405.72
2022-08-05T10:46:06.203Z,97394.50
2022-08-05T10:48:52.531Z,97399.66
2022-08-05T10:51:28.290Z,97397.13
2022-08-05T10:53:58.429Z,97394.19
2022-08-05T10:56:29.573Z,97390.25
2022-08-05T10:59:12.426Z,97392.59
2022-08-05T11:01:55.438Z,97392.22
2022-08-05T11:04:31.805Z,97394.84
2022-08-05T11:07:05.595Z,97399.13
2022-08-05T11:09:45.385Z,97385.69
2022-08-05T11:12:31.661Z,97381.53
2022-08-05T11:15:20.489Z,97377.28
2022-08-05T11:17:57.696Z,97388.53
2022-08-05T11:20:34.952Z,97381.00
2022-08-05T11:23:21.559Z,97372.53
2022-08-05T11:26:09.966Z,97373.66
2022-08-05T11:28:37.426Z,97374.69
2022-08-05T11:31:06.473Z,97374.09
2022-08-05T11:33:47.739Z,97366.97
2022-08-05T11:36:34.257Z,97362.44
2022-08-05T11:39:06.313Z,97361.66
2022-08-05T11:42:01.264Z,97365.63
2022-08-05T11:44:53.198Z,97360.56
2022-08-05T11:47:15.301Z,97354.84
2022-08-05T11:49:49.728Z,97355.97
2022-08-05T11:52:29.244Z,97355.13
2022-08-05T11:54:56.720Z,97355.38
2022-08-05T11:57:28.327Z,97354.59
2022-08-05T11:59:57.705Z,97348.13
2022-08-05T12:02:31.409Z,97349.63
2022-08-05T12:05:00.077Z,97346.91
2022-08-05T12:08:08.779Z,97350.72
2022-08-05T12:10:18.271Z,97346.97
2022-08-05T12:12:46.614Z,97338.25
2022-08-05T12:15:38.767Z,97343.16
2022-08-05T12:18:10.786Z,97344.25
2022-08-05T12:20:39.100Z,97342.25
2022-08-05T12:23:09.911Z,97340.28
2022-08-05T12:25:56.678Z,97347.28
2022-08-05T12:28:32.801Z,97338.06
2022-08-05T12:31:02.240Z,97331.16
2022-08-05T12:33:37.172Z,97325.63
2022-08-05T12:36:09.594Z,97328.38
2022-08-05T12:38:41.173Z,97338.75
2022-08-05T12:41:17.010Z,97327.59
2022-08-05T12:43:55.426Z,97326.19
2022-08-05T12:46:32.576Z,97322.03
2022-08-05T12:49:14.339Z,97320.38
2022-08-05T12:52:12.322Z,97314.00
2022-08-05T12:54:35.691Z,97309.91
2022-08-05T12:57:05.209Z,97315.81
2022-08-05T13:01:56.850Z,97299.84
2022-08-05T13:02:37.191Z,97304.47
2022-08-05T13:05:07.165Z,97315.06
2022-08-05T13:07:59.485Z,97303.09
2022-08-05T13:10:20.839Z,97307.31
2022-08-05T13:12:51.032Z,97303.78
2022-08-05T13:15:41.632Z,97293.03
2022-08-05T13:18:19.495Z,97300.00
2022-08-05T13:20:46.698Z,97301.66
2022-08-05T13:23:13.603Z,97294.91
2022-08-05T13:25:52.543Z,97298.00
2022-08-05T13:28:26.593Z,97293.28
2022-08-05T13:30:57.212Z,97287.97
2022-08-05T13:34:22.683Z,97286.88
2022-08-05T13:36:11.210Z,97288.72
2022-08-05T13:38:42.540Z,97282.38
2022-08-05T13:41:09.816Z,97287.00
2022-08-05T13:43:45.165Z,97276.44
2022-08-05T13:46:43.644Z,97282.53
2022-08-05T13:49:10.343Z,97278.13
2022-08-05T13:51:40.874Z,97280.00
2022-08-05T13:54:11.889Z,97276.47
2022-08-05T13:56:39.711Z,97269.06
2022-08-05T13:59:19.633Z,97270.59
2022-08-05T14:01:59.068Z,97267.31
2022-08-05T14:04:49.586Z,97280.38
2022-08-05T14:07:25.634Z,97274.44
2022-08-05T14:10:08.205Z,97273.03
2022-08-05T14:12:35.346Z,97268.66
2022-08-05T14:15:05.830Z,97272.59
2022-08-05T14:17:48.547Z,97260.22
2022-08-05T14:20:18.326Z,97266.88
2022-08-05T14:22:49.923Z,97259.00
2022-08-05T14:25:21.554Z,97261.28
2022-08-05T14:27:49.647Z,97261.41
2022-08-05T14:30:20.842Z,97267.03
2022-08-05T14:32:49.199Z,97259.63
2022-08-05T14:35:20.575Z,97247.78
2022-08-05T14:37:52.179Z,97244.94
2022-08-05T14:40:21.689Z,97255.44
2022-08-05T14:42:51.287Z,97254.47
2022-08-05T14:45:18.826Z,97244.28
2022-08-05T14:48:02.912Z,97255.53
2022-08-05T14:50:32.063Z,97235.88
2022-08-05T14:52:59.784Z,97236.16
2022-08-05T14:55:38.663Z,97233.50
2022-08-05T14:58:11.848Z,97229.06
2022-08-05T15:00:58.022Z,97237.59
2022-08-05T15:03:25.559Z,97224.50
2022-08-05T15:06:08.380Z,97223.91
2022-08-05T15:09:01.073Z,97215.84
2022-08-05T15:11:51.809Z,97219.16
2022-08-05T15:14:11.901Z,97221.09
2022-08-05T15:16:58.427Z,97225.81
2022-08-05T15:19:26.352Z,97211.25
2022-08-05T15:21:52.913Z,97213.72
2022-08-05T15:24:19.802Z,97212.69
2022-08-05T15:26:46.569Z,97210.97
2022-08-05T15:29:15.292Z,97214.38
2022-08-05T15:31:52.429Z,97200.84
2022-08-05T15:34:32.470Z,97208.84
2022-08-05T15:37:02.359Z,97212.38
2022-08-05T15:41:01.027Z,97207.94
2022-08-05T15:42:54.482Z,97197.47
2022-08-05T15:45:06.141Z,97193.88
2022-08-05T15:47:35.953Z,97204.97
2022-08-05T15:50:03.600Z,97207.78
2022-08-05T15:52:53.499Z,97204.88
2022-08-05T15:55:19.406Z,97203.44
2022-08-05T15:57:51.895Z,97209.31
2022-08-05T16:00:26.159Z,97198.13
2022-08-05T16:03:02.194Z,97202.91
2022-08-05T16:05:28.857Z,97191.88
2022-08-05T16:07:55.395Z,97197.38
2022-08-05T16:10:25.598Z,97192.19
2022-08-05T16:12:53.458Z,97191.59
2022-08-05T16:15:22.742Z,97192.25
2022-08-05T16:17:57.478Z,97201.28
2022-08-05T16:20:25.218Z,97199.28
2022-08-05T16:22:51.790Z,97188.28
2022-08-05T16:25:18.359Z,97192.34
2022-08-05T16:27:59.879Z,97185.16
2022-08-05T16:30:29.330Z,97186.59
2022-08-05T16:32:56.231Z,97190.28
2022-08-05T16:35:27.922Z,97188.00
2022-08-05T16:38:15.486Z,97182.38
2022-08-05T16:40:51.731Z,97177.84
2022-08-05T16:43:23.727Z,97180.59
2022-08-05T16:46:04.378Z,97180.22
2022-08-05T16:48:36.491Z,97180.69
2022-08-05T16:51:03.803Z,97185.66
2022-08-05T16:54:05.332Z,97187.59
2022-08-05T16:56:26.813Z,97186.66
2022-08-05T16:58:54.673Z,97182.47
2022-08-05T17:01:22.696Z,97187.28
2022-08-05T17:03:52.167Z,97187.38
2022-08-05T17:06:19.127Z,97190.13
2022-08-05T17:08:53.645Z,97181.81
2022-08-05T17:11:23.955Z,97189.91
2022-08-05T17:14:00.153Z,97189.09
2022-08-05T17:16:33.349Z,97197.09
2022-08-05T17:19:00.667Z,97198.31
2022-08-05T17:21:35.556Z,97194.31
2022-08-05T17:24:19.600Z,97205.41
2022-08-05T17:26:50.041Z,97196.72
2022-08-05T17:29:17.370Z,97195.75
2022-08-05T17:31:58.191Z,97191.44
2022-08-05T17:34:29.765Z,97203.88
2022-08-05T17:36:58.492Z,97204.91
2022-08-05T17:39:33.139Z,97208.59
2022-08-05T17:42:19.628Z,97215.75
2022-08-05T17:44:50.416Z,97217.44
2022-08-05T17:47:22.231Z,97212.06
2022-08-05T17:50:00.052Z,97223.88
2022-08-05T17:52:32.339Z,97221.59
2022-08-05T17:54:59.435Z,97216.41
2022-08-05T17:57:26.214Z,97228.16
2022-08-05T18:00:03.491Z,97228.22
2022-08-05T18:02:33.397Z,97231.16
2022-08-05T18:05:03.157Z,97224.88
2022-08-05T18:07:41.618Z,97230.28
2022-08-05T18:10:11.459Z,97231.09
2022-08-05T18:12:40.903Z,97241.31
2022-08-05T18:15:08.797Z,97240.44
2022-08-05T18:17:58.857Z,97240.78
2022-08-05T18:20:29.180Z,97243.56
2022-08-05T18:23:00.611Z,97248.59
2022-08-05T18:25:38.839Z,97249.41
2022-08-05T18:28:06.073Z,97250.84
2022-08-05T18:30:33.757Z,97253.97
2022-08-05T18:33:01.421Z,97257.03
2022-08-05T18:36:01.173Z,97259.72
2022-08-05T18:38:19.397Z,97260.03
2022-08-05T18:41:55.478Z,97267.59
2022-08-05T18:43:43.132Z,97268.84
2022-08-05T18:46:19.756Z,97265.03
2022-08-05T18:48:51.965Z,97270.25
2022-08-05T18:52:05.983Z,97273.63
2022-08-05T18:54:30.942Z,97266.22
2022-08-05T18:57:01.170Z,97277.13
2022-08-05T18:59:43.127Z,97267.38
2022-08-05T19:02:37.996Z,97270.13
2022-08-05T19:06:03.475Z,97268.13
2022-08-05T19:07:58.089Z,97275.13
2022-08-05T19:10:28.434Z,97277.50
2022-08-05T19:12:58.337Z,97276.03
2022-08-05T19:15:58.950Z,97280.94
2022-08-05T19:18:20.712Z,97277.75
2022-08-05T19:20:51.674Z,97278.78
2022-08-05T19:23:22.791Z,97277.97
2022-08-05T19:26:09.182Z,97278.31
2022-08-05T19:28:37.948Z,97273.09
2022-08-05T19:31:09.237Z,97277.66
2022-08-05T19:33:40.632Z,97278.69
2022-08-05T19:36:17.028Z,97275.78
2022-08-05T19:38:45.454Z,97282.41
2022-08-05T19:41:12.470Z,97285.25
2022-08-05T19:44:06.580Z,97289.31
2022-08-05T19:46:30.315Z,97290.47
2022-08-05T19:49:03.320Z,97286.78
2022-08-05T19:52:04.983Z,97288.97
2022-08-05T19:54:26.667Z,97285.56
2022-08-05T19:56:59.542Z,97294.72
2022-08-05T19:59:56.618Z,97289.22
2022-08-05T20:02:17.610Z,97293.09
2022-08-05T20:04:46.457Z,97297.97
2022-08-05T20:07:15.447Z,97292.41
2022-08-05T20:09:53.905Z,97287.31
2022-08-05T20:12:23.734Z,97293.53
2022-08-05T20:14:52.041Z,97290.13
2022-08-05T20:17:23.748Z,97290.47
2022-08-05T20:19:56.868Z,97288.28
2022-08-05T20:22:26.804Z,97287.09
2022-08-05T20:24:57.470Z,97285.06
2022-08-05T20:27:27.422Z,97281.72
2022-08-05T20:30:10.245Z,97284.34
2022-08-05T20:32:37.390Z,97288.16
2022-08-05T20:35:12.001Z,97292.81
2022-08-05T20:38:06.806Z,97292.78
2022-08-05T20:40:26.792Z,97294.88
2022-08-05T20:42:53.732Z,97302.13
2022-08-05T20:45:56.578Z,97294.97
2022-08-05T20:48:16.562Z,97306.97
2022-08-05T20:50:45.556Z,97307.59
2022-08-05T20:53:15.960Z,97303.63
2022-08-05T20:56:08.284Z,97295.44
2022-08-05T20:58:35.868Z,97290.16
2022-08-05T21:01:03.786Z,97293.75
2022-08-05T21:03:34.563Z,97286.03
2022-08-05T21:06:01.909Z,97285.97
2022-08-05T21:08:41.405Z,97291.91
2022-08-05T21:11:11.685Z,97282.38
2022-08-05T21:13:47.909Z,97292.53
2022-08-05T21:16:22.838Z,97281.28
2022-08-05T21:18:55.932Z,97294.81
2022-08-05T21:21:26.983Z,97286.97
2022-08-05T21:24:13.138Z,97287.50
2022-08-05T21:26:41.325Z,97287.88
2022-08-05T21:29:10.058Z,97293.97
2022-08-05T21:31:43.330Z,97290.28
2022-08-05T21:34:10.365Z,97295.66
2022-08-05T21:36:37.402Z,97289.44
2022-08-05T21:39:04.154Z,97296.03
2022-08-05T21:41:35.630Z,97297.78
2022-08-05T21:44:04.344Z,97301.13
2022-08-05T21:46:34.627Z,97302.44
2022-08-05T21:49:02.237Z,97303.34
2022-08-05T21:52:15.715Z,97306.91
2022-08-05T21:54:18.163Z,97306.72
2022-08-05T21:57:15.490Z,97311.75
2022-08-05T22:00:01.935Z,97312.81
2022-08-05T22:02:31.961Z,97315.69
2022-08-05T22:04:58.795Z,97304.69
2022-08-05T22:07:54.233Z,97314.47
2022-08-05T22:10:13.133Z,97317.59
2022-08-05T22:12:44.932Z,97319.00
2022-08-05T22:16:02.461Z,97315.19
2022-08-05T22:18:04.274Z,97316.84
2022-08-05T22:20:30.916Z,97319.94
2022-08-05T22:23:21.675Z,97317.94
2022-08-05T22:26:10.353Z,97315.25
2022-08-05T22:28:38.646Z,97307.03
2022-08-05T22:31:05.970Z,97307.31
2022-08-05T22:33:55.797Z,97313.25
2022-08-05T22:36:19.740Z,97303.78
2022-08-05T22:38:50.996Z,97306.19
2022-08-05T22:42:05.123Z,97303.34
2022-08-05T22:44:05.057Z,97309.75
2022-08-05T22:46:31.961Z,97310.66
2022-08-05T22:48:59.090Z,97316.72
2022-08-05T22:52:02.581Z,97312.75
2022-08-05T22:54:12.342Z,97314.91
2022-08-05T22:56:39.858Z,97312.47
2022-08-05T22:59:44.157Z,97311.22
2022-08-05T23:02:05.836Z,97313.19
2022-08-05T23:04:34.166Z,97309.53
2022-08-05T23:07:01.117Z,97307.44
2022-08-05T23:09:53.418Z,97301.63
2022-08-05T23:12:16.388Z,97299.09
2022-08-05T23:14:43.627Z,97296.97
2022-08-05T23:17:34.601Z,97299.94
2022-08-05T23:20:06.007Z,97300.50
2022-08-05T23:22:42.849Z,97297.72
2022-08-05T23:25:09.460Z,97299.13
2022-08-05T23:27:57.738Z,97299.56
2022-08-05T23:30:27.114Z,97299.97
2022-08-05T23:32:57.558Z,97297.16
2022-08-05T23:35:24.204Z,97292.63
2022-08-05T23:37:55.053Z,97300.41
2022-08-05T23:40:27.126Z,97298.28
2022-08-05T23:42:54.073Z,97298.69
2022-08-05T23:45:23.536Z,97294.19
2022-08-05T23:47:50.416Z,97295.16
2022-08-05T23:50:20.656Z,97295.31
2022-08-05T23:52:49.963Z,97289.13
2022-08-05T23:55:18.189Z,97290.41
2022-08-05T23:57:51.236Z,97290.13
